sensor_id;sensor_type;location;lat;lon;timestamp;pressure;altitude;pressure_sealevel;temperature;humidity
51439;BME280;38816;51.142;-0.974;2022-07-30T00:00:56;100493.78;;;15.70;82.30
51439;BME280;38816;51.142;-0.974;2022-07-30T00:03:21;100495.50;;;15.76;82.60
51439;BME280;38816;51.142;-0.974;2022-07-30T00:05:47;100488.63;;;15.76;82.63
51439;BME280;38816;51.142;-0.974;2022-07-30T00:08:13;100492.06;;;15.84;83.03
51439;BME280;38816;51.142;-0.974;2022-07-30T00:10:39;100489.47;;;15.80;83.32
51439;BME280;38816;51.142;-0.974;2022-07-30T00:13:05;100507.59;;;15.84;82.93
51439;BME280;38816;51.142;-0.974;2022-07-30T00:15:30;100481.72;;;15.72;83.23
51439;BME280;38816;51.142;-0.974;2022-07-30T00:17:56;100498.09;;;15.76;83.25
51439;BME280;38816;51.142;-0.974;2022-07-30T00:20:21;100496.41;;;15.67;83.32
51439;BME280;38816;51.142;-0.974;2022-07-30T00:22:47;100501.59;;;15.64;84.25
51439;BME280;38816;51.142;-0.974;2022-07-30T00:25:12;100497.25;;;15.63;84.56
51439;BME280;38816;51.142;-0.974;2022-07-30T00:27:38;100494.66;;;15.63;84.39
51439;BME280;38816;51.142;-0.974;2022-07-30T00:30:04;100478.22;;;15.55;84.64
51439;BME280;38816;51.142;-0.974;2022-07-30T00:32:30;100466.13;;;15.51;84.76
51439;BME280;38816;51.142;-0.974;2022-07-30T00:34:55;100466.13;;;15.46;84.93
51439;BME280;38816;51.142;-0.974;2022-07-30T00:37:21;100467.84;;;15.42;85.18
51439;BME280;38816;51.142;-0.974;2022-07-30T00:39:47;100458.38;;;15.32;85.62
51439;BME280;38816;51.142;-0.974;2022-07-30T00:42:13;100486.00;;;15.36;86.11
51439;BME280;38816;51.142;-0.974;2022-07-30T00:44:38;100482.53;;;15.34;86.17
51439;BME280;38816;51.142;-0.974;2022-07-30T00:47:05;100470.44;;;15.29;86.47
51439;BME280;38816;51.142;-0.974;2022-07-30T00:49:30;100473.03;;;15.24;86.50
51439;BME280;38816;51.142;-0.974;2022-07-30T00:51:56;100477.34;;;15.24;86.87
51439;BME280;38816;51.142;-0.974;2022-07-30T00:54:21;100474.75;;;15.16;86.90
51439;BME280;38816;51.142;-0.974;2022-07-30T00:56:47;100485.94;;;15.12;87.18
51439;BME280;38816;51.142;-0.974;2022-07-30T00:59:13;100479.91;;;15.07;87.40
51439;BME280;38816;51.142;-0.974;2022-07-30T01:01:39;100474.72;;;15.04;87.43
51439;BME280;38816;51.142;-0.974;2022-07-30T01:04:04;100468.69;;;14.96;87.65
51439;BME280;38816;51.142;-0.974;2022-07-30T01:06:35;100479.88;;;14.99;87.85
51439;BME280;38816;51.142;-0.974;2022-07-30T01:09:01;100480.78;;;15.00;88.45
51439;BME280;38816;51.142;-0.974;2022-07-30T01:11:32;100486.81;;;15.02;88.68
51439;BME280;38816;51.142;-0.974;2022-07-30T01:13:58;100476.44;;;14.96;88.67
51439;BME280;38816;51.142;-0.974;2022-07-30T01:16:24;100483.34;;;14.97;88.80
51439;BME280;38816;51.142;-0.974;2022-07-30T01:18:49;100478.16;;;14.90;89.31
51439;BME280;38816;51.142;-0.974;2022-07-30T01:21:38;100464.31;;;14.85;89.72
51439;BME280;38816;51.142;-0.974;2022-07-30T01:24:24;100472.97;;;14.87;89.80
51439;BME280;38816;51.142;-0.974;2022-07-30T01:26:52;100460.88;;;14.79;90.17
51439;BME280;38816;51.142;-0.974;2022-07-30T01:29:19;100459.13;;;14.76;90.39
51439;BME280;38816;51.142;-0.974;2022-07-30T01:31:46;100467.78;;;14.78;90.85
51439;BME280;38816;51.142;-0.974;2022-07-30T01:34:13;100472.06;;;14.76;91.01
51439;BME280;38816;51.142;-0.974;2022-07-30T01:36:43;100464.28;;;14.70;90.81
51439;BME280;38816;51.142;-0.974;2022-07-30T01:39:11;100471.19;;;14.71;91.22
51439;BME280;38816;51.142;-0.974;2022-07-30T01:41:38;100469.47;;;14.70;91.38
51439;BME280;38816;51.142;-0.974;2022-07-30T01:44:04;100465.13;;;14.63;91.22
51439;BME280;38816;51.142;-0.974;2022-07-30T01:46:32;100470.31;;;14.64;91.50
51439;BME280;38816;51.142;-0.974;2022-07-30T01:48:58;100467.69;;;14.57;91.68
51439;BME280;38816;51.142;-0.974;2022-07-30T01:51:26;100464.25;;;14.55;92.10
51439;BME280;38816;51.142;-0.974;2022-07-30T01:53:52;100474.59;;;14.58;92.13
51439;BME280;38816;51.142;-0.974;2022-07-30T01:56:20;100464.22;;;14.52;91.67
51439;BME280;38816;51.142;-0.974;2022-07-30T01:58:48;100458.16;;;14.48;91.43
51439;BME280;38816;51.142;-0.974;2022-07-30T02:03:59;100454.66;;;14.44;91.31
51439;BME280;38816;51.142;-0.974;2022-07-30T02:06:31;100465.94;;;14.50;91.23
51439;BME280;38816;51.142;-0.974;2022-07-30T02:09:03;100465.91;;;14.47;90.85
51439;BME280;38816;51.142;-0.974;2022-07-30T02:11:29;100460.69;;;14.39;91.21
51439;BME280;38816;51.142;-0.974;2022-07-30T02:14:23;100450.34;;;14.37;91.41
51439;BME280;38816;51.142;-0.974;2022-07-30T02:16:53;100450.34;;;14.43;91.55
51439;BME280;38816;51.142;-0.974;2022-07-30T02:19:23;100454.66;;;14.40;91.35
51439;BME280;38816;51.142;-0.974;2022-07-30T02:21:57;100456.38;;;14.38;90.99
51439;BME280;38816;51.142;-0.974;2022-07-30T02:24:27;100433.91;;;14.26;91.01
51439;BME280;38816;51.142;-0.974;2022-07-30T02:27:00;100437.34;;;14.25;91.14
51439;BME280;38816;51.142;-0.974;2022-07-30T02:29:26;100438.19;;;14.15;91.42
51439;BME280;38816;51.142;-0.974;2022-07-30T02:31:55;100449.34;;;14.06;91.97
51439;BME280;38816;51.142;-0.974;2022-07-30T02:34:23;100444.09;;;13.94;92.46
51439;BME280;38816;51.142;-0.974;2022-07-30T02:36:50;100453.47;;;13.81;93.18
51439;BME280;38816;51.142;-0.974;2022-07-30T02:39:18;100456.91;;;13.82;93.86
51439;BME280;38816;51.142;-0.974;2022-07-30T02:41:45;100451.75;;;13.80;94.58
51439;BME280;38816;51.142;-0.974;2022-07-30T02:44:11;100449.13;;;13.76;95.27
51439;BME280;38816;51.142;-0.974;2022-07-30T02:46:37;100459.50;;;13.79;95.55
51439;BME280;38816;51.142;-0.974;2022-07-30T02:49:04;100451.69;;;13.71;95.67
51439;BME280;38816;51.142;-0.974;2022-07-30T02:51:31;100463.78;;;13.75;96.15
51439;BME280;38816;51.142;-0.974;2022-07-30T02:53:59;100449.06;;;13.66;96.39
51439;BME280;38816;51.142;-0.974;2022-07-30T02:56:28;100440.47;;;13.64;95.63
51439;BME280;38816;51.142;-0.974;2022-07-30T02:58:55;100448.19;;;13.61;95.64
51439;BME280;38816;51.142;-0.974;2022-07-30T03:01:22;100438.69;;;13.56;95.07
51439;BME280;38816;51.142;-0.974;2022-07-30T03:03:50;100439.50;;;13.52;94.61
51439;BME280;38816;51.142;-0.974;2022-07-30T03:06:17;100429.09;;;13.46;94.20
51439;BME280;38816;51.142;-0.974;2022-07-30T03:08:43;100437.69;;;13.41;93.68
51439;BME280;38816;51.142;-0.974;2022-07-30T03:11:10;100436.81;;;13.38;93.88
51439;BME280;38816;51.142;-0.974;2022-07-30T03:13:36;100447.13;;;13.38;93.54
51439;BME280;38816;51.142;-0.974;2022-07-30T03:16:04;100432.50;;;13.38;93.87
51439;BME280;38816;51.142;-0.974;2022-07-30T03:18:33;100441.97;;;13.39;93.15
51439;BME280;38816;51.142;-0.974;2022-07-30T03:21:00;100448.00;;;13.40;93.36
51439;BME280;38816;51.142;-0.974;2022-07-30T03:23:26;100436.75;;;13.32;93.80
51439;BME280;38816;51.142;-0.974;2022-07-30T03:25:58;100441.09;;;13.36;93.93
51439;BME280;38816;51.142;-0.974;2022-07-30T03:28:27;100444.50;;;13.32;94.27
51439;BME280;38816;51.142;-0.974;2022-07-30T03:30:54;100445.34;;;13.32;94.81
51439;BME280;38816;51.142;-0.974;2022-07-30T03:33:20;100449.66;;;13.30;95.28
51439;BME280;38816;51.142;-0.974;2022-07-30T03:35:47;100453.09;;;13.31;95.54
51439;BME280;38816;51.142;-0.974;2022-07-30T03:38:13;100435.84;;;13.27;95.77
51439;BME280;38816;51.142;-0.974;2022-07-30T03:40:43;100447.94;;;13.32;95.70
51439;BME280;38816;51.142;-0.974;2022-07-30T03:43:10;100434.97;;;13.28;95.56
51439;BME280;38816;51.142;-0.974;2022-07-30T03:45:37;100436.75;;;13.29;95.75
51439;BME280;38816;51.142;-0.974;2022-07-30T03:48:06;100429.81;;;13.25;95.70
51439;BME280;38816;51.142;-0.974;2022-07-30T03:50:34;100431.47;;;13.21;95.66
51439;BME280;38816;51.142;-0.974;2022-07-30T03:53:01;100426.25;;;13.18;95.87
51439;BME280;38816;51.142;-0.974;2022-07-30T03:55:27;100426.25;;;13.15;95.88
51439;BME280;38816;51.142;-0.974;2022-07-30T03:57:53;100432.28;;;13.15;95.70
51439;BME280;38816;51.142;-0.974;2022-07-30T04:00:18;100433.13;;;13.13;95.56
51439;BME280;38816;51.142;-0.974;2022-07-30T04:02:45;100433.94;;;13.06;95.55
51439;BME280;38816;51.142;-0.974;2022-07-30T04:05:12;100427.81;;;13.01;95.57
51439;BME280;38816;51.142;-0.974;2022-07-30T04:07:38;100429.59;;;13.02;95.77
51439;BME280;38816;51.142;-0.974;2022-07-30T04:10:04;100426.09;;;13.01;95.99
51439;BME280;38816;51.142;-0.974;2022-07-30T04:12:30;100425.25;;;13.01;95.81
51439;BME280;38816;51.142;-0.974;2022-07-30T04:14:56;100427.88;;;13.02;95.26
51439;BME280;38816;51.142;-0.974;2022-07-30T04:17:48;100428.78;;;13.09;95.15
51439;BME280;38816;51.142;-0.974;2022-07-30T04:20:34;100417.59;;;13.07;95.12
51439;BME280;38816;51.142;-0.974;2022-07-30T04:23:01;100433.13;;;13.13;94.86
51439;BME280;38816;51.142;-0.974;2022-07-30T04:25:28;100424.47;;;13.09;95.26
51439;BME280;38816;51.142;-0.974;2022-07-30T04:27:53;100427.13;;;13.17;95.66
51439;BME280;38816;51.142;-0.974;2022-07-30T04:30:19;100413.34;;;13.15;95.65
51439;BME280;38816;51.142;-0.974;2022-07-30T04:32:45;100416.00;;;13.23;96.14
51439;BME280;38816;51.142;-0.974;2022-07-30T04:35:10;100420.41;;;13.31;96.09
51439;BME280;38816;51.142;-0.974;2022-07-30T04:37:36;100406.63;;;13.32;96.56
51439;BME280;38816;51.142;-0.974;2022-07-30T04:40:01;100412.72;;;13.40;96.88
51439;BME280;38816;51.142;-0.974;2022-07-30T04:42:28;100426.53;;;13.44;97.39
51439;BME280;38816;51.142;-0.974;2022-07-30T04:44:54;100423.94;;;13.46;97.25
51439;BME280;38816;51.142;-0.974;2022-07-30T04:47:20;100423.97;;;13.49;97.93
51439;BME280;38816;51.142;-0.974;2022-07-30T04:49:46;100419.66;;;13.48;98.02
51439;BME280;38816;51.142;-0.974;2022-07-30T04:52:13;100410.16;;;13.42;98.30
51439;BME280;38816;51.142;-0.974;2022-07-30T04:54:47;100410.13;;;13.40;98.32
51439;BME280;38816;51.142;-0.974;2022-07-30T04:57:16;100418.78;;;13.46;98.80
51439;BME280;38816;51.142;-0.974;2022-07-30T04:59:42;100417.09;;;13.51;99.43
51439;BME280;38816;51.142;-0.974;2022-07-30T05:02:09;100417.19;;;13.63;99.41
51439;BME280;38816;51.142;-0.974;2022-07-30T05:04:35;100416.41;;;13.76;99.58
51439;BME280;38816;51.142;-0.974;2022-07-30T05:07:02;100420.81;;;13.92;99.47
51439;BME280;38816;51.142;-0.974;2022-07-30T05:09:29;100412.22;;;14.00;99.74
51439;BME280;38816;51.142;-0.974;2022-07-30T05:11:56;100432.13;;;14.16;99.64
51439;BME280;38816;51.142;-0.974;2022-07-30T05:14:22;100433.03;;;14.26;99.58
51439;BME280;38816;51.142;-0.974;2022-07-30T05:16:49;100431.34;;;14.34;99.55
51439;BME280;38816;51.142;-0.974;2022-07-30T05:19:14;100440.03;;;14.47;99.51
51439;BME280;38816;51.142;-0.974;2022-07-30T05:21:39;100429.75;;;14.51;99.24
51439;BME280;38816;51.142;-0.974;2022-07-30T05:24:05;100426.28;;;14.58;98.90
51439;BME280;38816;51.142;-0.974;2022-07-30T05:26:31;100431.50;;;14.69;98.59
51439;BME280;38816;51.142;-0.974;2022-07-30T05:28:56;100431.50;;;14.72;98.27
51439;BME280;38816;51.142;-0.974;2022-07-30T05:31:22;100439.31;;;14.78;98.13
51439;BME280;38816;51.142;-0.974;2022-07-30T05:33:48;100437.56;;;14.80;97.73
51439;BME280;38816;51.142;-0.974;2022-07-30T05:36:13;100422.03;;;14.79;97.54
51439;BME280;38816;51.142;-0.974;2022-07-30T05:38:39;100433.28;;;14.94;97.16
51439;BME280;38816;51.142;-0.974;2022-07-30T05:41:04;100428.13;;;15.02;97.42
51439;BME280;38816;51.142;-0.974;2022-07-30T05:43:30;100427.25;;;15.11;96.70
51439;BME280;38816;51.142;-0.974;2022-07-30T05:45:55;100422.97;;;15.19;96.32
51439;BME280;38816;51.142;-0.974;2022-07-30T05:48:21;100430.72;;;15.30;95.80
51439;BME280;38816;51.142;-0.974;2022-07-30T05:50:46;100420.34;;;15.39;95.78
51439;BME280;38816;51.142;-0.974;2022-07-30T05:53:12;100413.44;;;15.44;95.57
51439;BME280;38816;51.142;-0.974;2022-07-30T05:55:37;100416.03;;;15.52;94.73
51439;BME280;38816;51.142;-0.974;2022-07-30T05:58:02;100415.19;;;15.51;94.23
51439;BME280;38816;51.142;-0.974;2022-07-30T06:00:28;100423.78;;;15.58;94.31
51439;BME280;38816;51.142;-0.974;2022-07-30T06:02:53;100420.34;;;15.60;94.10
51439;BME280;38816;51.142;-0.974;2022-07-30T06:05:19;100426.44;;;15.64;94.08
51439;BME280;38816;51.142;-0.974;2022-07-30T06:07:44;100433.34;;;15.65;94.04
51439;BME280;38816;51.142;-0.974;2022-07-30T06:10:10;100423.81;;;15.56;93.40
51439;BME280;38816;51.142;-0.974;2022-07-30T06:12:36;100435.94;;;15.65;93.22
51439;BME280;38816;51.142;-0.974;2022-07-30T06:15:02;100431.56;;;15.62;93.24
51439;BME280;38816;51.142;-0.974;2022-07-30T06:17:27;100427.28;;;15.63;93.02
51439;BME280;38816;51.142;-0.974;2022-07-30T06:19:53;100426.44;;;15.67;93.05
51439;BME280;38816;51.142;-0.974;2022-07-30T06:22:18;100436.75;;;15.79;92.85
51439;BME280;38816;51.142;-0.974;2022-07-30T06:24:44;100429.84;;;15.90;92.54
51439;BME280;38816;51.142;-0.974;2022-07-30T06:27:10;100427.22;;;16.01;92.33
51439;BME280;38816;51.142;-0.974;2022-07-30T06:29:36;100425.44;;;16.11;91.50
51439;BME280;38816;51.142;-0.974;2022-07-30T06:32:02;100417.66;;;16.17;90.96
51439;BME280;38816;51.142;-0.974;2022-07-30T06:34:27;100431.41;;;16.37;91.03
51439;BME280;38816;51.142;-0.974;2022-07-30T06:36:53;100414.03;;;16.52;90.20
51439;BME280;38816;51.142;-0.974;2022-07-30T06:39:19;100427.75;;;16.84;89.13
51439;BME280;38816;51.142;-0.974;2022-07-30T06:41:44;100417.19;;;17.09;87.23
51439;BME280;38816;51.142;-0.974;2022-07-30T06:44:10;100420.31;;;17.49;85.06
51439;BME280;38816;51.142;-0.974;2022-07-30T06:46:35;100418.34;;;17.79;82.51
51439;BME280;38816;51.142;-0.974;2022-07-30T06:49:01;100419.72;;;18.09;80.40
51439;BME280;38816;51.142;-0.974;2022-07-30T06:51:26;100418.59;;;18.31;74.84
51439;BME280;38816;51.142;-0.974;2022-07-30T06:53:52;100426.03;;;18.59;73.40
51439;BME280;38816;51.142;-0.974;2022-07-30T06:56:17;100426.72;;;18.73;72.72
51439;BME280;38816;51.142;-0.974;2022-07-30T06:58:42;100425.78;;;18.80;67.93
51439;BME280;38816;51.142;-0.974;2022-07-30T07:01:08;100412.72;;;18.82;67.96
51439;BME280;38816;51.142;-0.974;2022-07-30T07:03:33;100420.28;;;18.98;69.63
51439;BME280;38816;51.142;-0.974;2022-07-30T07:05:59;100417.66;;;19.00;67.76
51439;BME280;38816;51.142;-0.974;2022-07-30T07:08:24;100416.66;;;19.09;67.82
51439;BME280;38816;51.142;-0.974;2022-07-30T07:10:50;100414.06;;;19.07;67.53
51439;BME280;38816;51.142;-0.974;2022-07-30T07:13:16;100430.28;;;19.26;66.37
51439;BME280;38816;51.142;-0.974;2022-07-30T07:15:41;100413.81;;;19.22;65.22
51439;BME280;38816;51.142;-0.974;2022-07-30T07:18:07;100423.25;;;19.31;64.83
51439;BME280;38816;51.142;-0.974;2022-07-30T07:20:33;100425.00;;;19.31;65.45
51439;BME280;38816;51.142;-0.974;2022-07-30T07:22:59;100443.91;;;19.43;64.29
51439;BME280;38816;51.142;-0.974;2022-07-30T07:25:25;100434.31;;;19.44;63.92
51439;BME280;38816;51.142;-0.974;2022-07-30T07:27:50;100435.25;;;19.41;62.73
51439;BME280;38816;51.142;-0.974;2022-07-30T07:30:16;100442.97;;;19.47;62.52
51439;BME280;38816;51.142;-0.974;2022-07-30T07:32:41;100443.84;;;19.46;62.16
51439;BME280;38816;51.142;-0.974;2022-07-30T07:35:07;100445.56;;;19.47;62.54
51439;BME280;38816;51.142;-0.974;2022-07-30T07:37:32;100440.31;;;19.49;61.82
51439;BME280;38816;51.142;-0.974;2022-07-30T07:39:58;100446.31;;;19.54;61.96
51439;BME280;38816;51.142;-0.974;2022-07-30T07:42:23;100442.00;;;19.55;62.30
51439;BME280;38816;51.142;-0.974;2022-07-30T07:44:49;100449.72;;;19.61;62.91
51439;BME280;38816;51.142;-0.974;2022-07-30T07:47:14;100438.44;;;19.59;61.83
51439;BME280;38816;51.142;-0.974;2022-07-30T07:49:40;100436.66;;;19.64;62.13
51439;BME280;38816;51.142;-0.974;2022-07-30T07:52:05;100452.22;;;19.68;61.79
51439;BME280;38816;51.142;-0.974;2022-07-30T07:54:31;100445.19;;;19.70;59.94
51439;BME280;38816;51.142;-0.974;2022-07-30T07:56:56;100455.72;;;19.66;59.10
51439;BME280;38816;51.142;-0.974;2022-07-30T07:59:22;100454.00;;;19.65;59.72
51439;BME280;38816;51.142;-0.974;2022-07-30T08:01:48;100455.88;;;19.55;59.32
51439;BME280;38816;51.142;-0.974;2022-07-30T08:04:13;100459.38;;;19.53;59.70
51439;BME280;38816;51.142;-0.974;2022-07-30T08:06:39;100468.03;;;19.56;60.00
51439;BME280;38816;51.142;-0.974;2022-07-30T08:09:04;100479.34;;;19.54;60.02
51439;BME280;38816;51.142;-0.974;2022-07-30T08:11:30;100481.88;;;19.60;59.77
51439;BME280;38816;51.142;-0.974;2022-07-30T08:13:56;100481.69;;;19.72;59.78
51439;BME280;38816;51.142;-0.974;2022-07-30T08:16:21;100487.50;;;19.88;60.26
51439;BME280;38816;51.142;-0.974;2022-07-30T08:18:47;100487.97;;;20.10;61.44
51439;BME280;38816;51.142;-0.974;2022-07-30T08:21:12;100473.06;;;20.16;59.90
51439;BME280;38816;51.142;-0.974;2022-07-30T08:23:39;100477.50;;;20.13;57.04
51439;BME280;38816;51.142;-0.974;2022-07-30T08:26:05;100475.28;;;19.90;57.15
51439;BME280;38816;51.142;-0.974;2022-07-30T08:28:31;100486.81;;;19.77;58.02
51439;BME280;38816;51.142;-0.974;2022-07-30T08:30:56;100486.97;;;19.69;58.69
51439;BME280;38816;51.142;-0.974;2022-07-30T08:33:22;100475.53;;;19.78;58.97
51439;BME280;38816;51.142;-0.974;2022-07-30T08:35:48;100477.34;;;19.72;57.66
51439;BME280;38816;51.142;-0.974;2022-07-30T08:38:13;100483.44;;;19.73;59.10
51439;BME280;38816;51.142;-0.974;2022-07-30T08:40:39;100485.03;;;19.82;57.71
51439;BME280;38816;51.142;-0.974;2022-07-30T08:43:06;100489.25;;;19.87;57.60
51439;BME280;38816;51.142;-0.974;2022-07-30T08:45:32;100493.47;;;19.94;58.00
51439;BME280;38816;51.142;-0.974;2022-07-30T08:48:02;100487.22;;;20.03;58.22
51439;BME280;38816;51.142;-0.974;2022-07-30T08:50:32;100486.25;;;20.09;58.10
51439;BME280;38816;51.142;-0.974;2022-07-30T08:53:01;100489.69;;;20.11;57.39
51439;BME280;38816;51.142;-0.974;2022-07-30T08:55:27;100491.22;;;20.21;58.35
51439;BME280;38816;51.142;-0.974;2022-07-30T08:57:53;100486.78;;;20.26;57.28
51439;BME280;38816;51.142;-0.974;2022-07-30T09:00:19;100485.72;;;20.36;57.37
51439;BME280;38816;51.142;-0.974;2022-07-30T09:02:45;100487.22;;;20.50;57.04
51439;BME280;38816;51.142;-0.974;2022-07-30T09:05:12;100480.22;;;20.52;56.70
51439;BME280;38816;51.142;-0.974;2022-07-30T09:07:38;100470.72;;;20.49;56.30
51439;BME280;38816;51.142;-0.974;2022-07-30T09:10:05;100481.94;;;20.53;56.27
51439;BME280;38816;51.142;-0.974;2022-07-30T09:12:35;100489.16;;;20.82;57.63
51439;BME280;38816;51.142;-0.974;2022-07-30T09:15:13;100479.00;;;21.08;56.09
51439;BME280;38816;51.142;-0.974;2022-07-30T09:20:10;100462.91;;;21.62;54.36
51439;BME280;38816;51.142;-0.974;2022-07-30T09:22:46;100455.09;;;21.93;53.71
51439;BME280;38816;51.142;-0.974;2022-07-30T09:25:12;100448.56;;;22.08;51.95
51439;BME280;38816;51.142;-0.974;2022-07-30T09:27:47;100453.72;;;22.13;51.20
51439;BME280;38816;51.142;-0.974;2022-07-30T09:30:14;100450.91;;;22.20;51.13
51439;BME280;38816;51.142;-0.974;2022-07-30T09:35:15;100453.97;;;22.35;50.57
51439;BME280;38816;51.142;-0.974;2022-07-30T09:37:42;100463.34;;;22.43;49.99
51439;BME280;38816;51.142;-0.974;2022-07-30T09:40:26;100468.66;;;22.40;50.84
51439;BME280;38816;51.142;-0.974;2022-07-30T09:43:09;100464.97;;;22.47;51.09
51439;BME280;38816;51.142;-0.974;2022-07-30T09:45:35;100457.81;;;22.53;51.12
51439;BME280;38816;51.142;-0.974;2022-07-30T09:48:01;100473.16;;;22.65;51.50
51439;BME280;38816;51.142;-0.974;2022-07-30T09:50:27;100473.44;;;22.56;50.40
51439;BME280;38816;51.142;-0.974;2022-07-30T09:52:53;100483.91;;;22.56;51.26
51439;BME280;38816;51.142;-0.974;2022-07-30T09:55:30;100473.28;;;22.62;51.69
51439;BME280;38816;51.142;-0.974;2022-07-30T09:58:01;100460.69;;;22.73;51.21
51439;BME280;38816;51.142;-0.974;2022-07-30T10:00:28;100472.63;;;22.83;49.79
51439;BME280;38816;51.142;-0.974;2022-07-30T10:02:55;100476.72;;;22.93;50.94
51439;BME280;38816;51.142;-0.974;2022-07-30T10:05:20;100479.41;;;23.18;50.57
51439;BME280;38816;51.142;-0.974;2022-07-30T10:10:19;100480.44;;;23.69;49.51
51439;BME280;38816;51.142;-0.974;2022-07-30T10:12:45;100462.50;;;23.55;47.85
51439;BME280;38816;51.142;-0.974;2022-07-30T10:15:12;100474.41;;;23.64;49.19
51439;BME280;38816;51.142;-0.974;2022-07-30T10:17:40;100468.09;;;23.71;48.79
51439;BME280;38816;51.142;-0.974;2022-07-30T10:20:09;100463.72;;;23.96;49.03
51439;BME280;38816;51.142;-0.974;2022-07-30T10:22:36;100465.13;;;24.30;46.76
51439;BME280;38816;51.142;-0.974;2022-07-30T10:25:03;100470.47;;;24.27;46.42
51439;BME280;38816;51.142;-0.974;2022-07-30T10:27:30;100478.16;;;24.33;46.70
51439;BME280;38816;51.142;-0.974;2022-07-30T10:29:56;100472.59;;;24.17;46.64
51439;BME280;38816;51.142;-0.974;2022-07-30T10:32:24;100466.03;;;24.29;46.37
51439;BME280;38816;51.142;-0.974;2022-07-30T10:34:50;100470.53;;;24.25;46.43
51439;BME280;38816;51.142;-0.974;2022-07-30T10:37:16;100481.44;;;24.15;45.23
51439;BME280;38816;51.142;-0.974;2022-07-30T10:39:53;100474.00;;;24.03;46.08
51439;BME280;38816;51.142;-0.974;2022-07-30T10:47:31;100461.81;;;24.00;46.89
51439;BME280;38816;51.142;-0.974;2022-07-30T10:50:19;100464.16;;;24.09;47.30
51439;BME280;38816;51.142;-0.974;2022-07-30T10:52:54;100455.53;;;24.29;47.52
51439;BME280;38816;51.142;-0.974;2022-07-30T10:55:21;100446.53;;;24.60;47.27
51439;BME280;38816;51.142;-0.974;2022-07-30T10:58:16;100448.66;;;24.72;45.38
51439;BME280;38816;51.142;-0.974;2022-07-30T11:03:20;100431.00;;;24.75;46.20
51439;BME280;38816;51.142;-0.974;2022-07-30T11:05:51;100444.66;;;25.07;46.31
51439;BME280;38816;51.142;-0.974;2022-07-30T11:08:41;100425.09;;;25.57;45.75
51439;BME280;38816;51.142;-0.974;2022-07-30T11:14:02;100426.63;;;26.22;44.29
51439;BME280;38816;51.142;-0.974;2022-07-30T11:19:10;100413.22;;;26.66;42.53
51439;BME280;38816;51.142;-0.974;2022-07-30T11:21:41;100426.16;;;26.51;42.62
51439;BME280;38816;51.142;-0.974;2022-07-30T11:27:07;100426.34;;;26.48;42.33
51439;BME280;38816;51.142;-0.974;2022-07-30T11:34:51;100427.25;;;26.66;42.38
51439;BME280;38816;51.142;-0.974;2022-07-30T11:37:17;100433.84;;;26.37;42.26
51439;BME280;38816;51.142;-0.974;2022-07-30T11:42:30;100425.13;;;25.77;45.15
51439;BME280;38816;51.142;-0.974;2022-07-30T11:47:45;100427.13;;;25.70;44.77
51439;BME280;38816;51.142;-0.974;2022-07-30T11:52:54;100436.91;;;25.26;46.21
51439;BME280;38816;51.142;-0.974;2022-07-30T11:55:40;100431.03;;;25.19;47.25
51439;BME280;38816;51.142;-0.974;2022-07-30T11:58:21;100443.44;;;25.38;46.44
51439;BME280;38816;51.142;-0.974;2022-07-30T12:00:48;100437.91;;;25.44;45.84
51439;BME280;38816;51.142;-0.974;2022-07-30T12:03:16;100431.41;;;25.52;46.11
51439;BME280;38816;51.142;-0.974;2022-07-30T12:05:42;100440.72;;;25.39;46.05
51439;BME280;38816;51.142;-0.974;2022-07-30T12:08:09;100443.91;;;25.47;46.82
51439;BME280;38816;51.142;-0.974;2022-07-30T12:10:35;100428.81;;;25.31;46.71
51439;BME280;38816;51.142;-0.974;2022-07-30T12:13:12;100441.63;;;25.40;47.78
51439;BME280;38816;51.142;-0.974;2022-07-30T12:15:41;100443.13;;;25.66;46.21
51439;BME280;38816;51.142;-0.974;2022-07-30T12:18:07;100433.84;;;25.57;47.24
51439;BME280;38816;51.142;-0.974;2022-07-30T12:20:33;100440.59;;;25.42;47.32
51439;BME280;38816;51.142;-0.974;2022-07-30T12:22:59;100426.97;;;25.33;47.87
51439;BME280;38816;51.142;-0.974;2022-07-30T12:25:24;100424.34;;;25.33;47.87
51439;BME280;38816;51.142;-0.974;2022-07-30T12:27:51;100417.97;;;25.38;47.66
51439;BME280;38816;51.142;-0.974;2022-07-30T12:30:17;100408.34;;;25.58;47.54
51439;BME280;38816;51.142;-0.974;2022-07-30T12:32:43;100404.22;;;25.93;46.76
51439;BME280;38816;51.142;-0.974;2022-07-30T12:35:10;100411.91;;;25.97;46.47
51439;BME280;38816;51.142;-0.974;2022-07-30T12:37:36;100408.22;;;26.01;46.28
51439;BME280;38816;51.142;-0.974;2022-07-30T12:42:30;100405.31;;;26.83;45.03
51439;BME280;38816;51.142;-0.974;2022-07-30T12:44:56;100396.38;;;27.05;44.74
51439;BME280;38816;51.142;-0.974;2022-07-30T12:47:26;100411.81;;;27.48;44.04
51439;BME280;38816;51.142;-0.974;2022-07-30T12:49:52;100396.91;;;27.30;44.30
51439;BME280;38816;51.142;-0.974;2022-07-30T12:52:25;100403.72;;;27.34;44.17
51439;BME280;38816;51.142;-0.974;2022-07-30T12:58:00;100415.16;;;26.98;44.49
51439;BME280;38816;51.142;-0.974;2022-07-30T13:03:26;100409.91;;;26.23;46.75
51439;BME280;38816;51.142;-0.974;2022-07-30T13:05:54;100406.06;;;26.30;47.29
51439;BME280;38816;51.142;-0.974;2022-07-30T13:08:19;100403.28;;;26.33;46.38
51439;BME280;38816;51.142;-0.974;2022-07-30T13:10:59;100403.66;;;26.25;46.51
51439;BME280;38816;51.142;-0.974;2022-07-30T13:13:28;100404.13;;;26.34;46.92
51439;BME280;38816;51.142;-0.974;2022-07-30T13:15:58;100394.91;;;26.63;45.71
51439;BME280;38816;51.142;-0.974;2022-07-30T13:18:24;100412.66;;;26.95;45.24
51439;BME280;38816;51.142;-0.974;2022-07-30T13:20:50;100400.75;;;26.87;44.16
51439;BME280;38816;51.142;-0.974;2022-07-30T13:23:15;100401.56;;;26.70;44.55
51439;BME280;38816;51.142;-0.974;2022-07-30T13:25:41;100396.50;;;26.84;45.07
51439;BME280;38816;51.142;-0.974;2022-07-30T13:28:06;100394.81;;;26.64;45.73
51439;BME280;38816;51.142;-0.974;2022-07-30T13:30:32;100392.59;;;26.74;45.91